createdAt,value
2019-04-27T00:01:17.522Z,12.18
2019-04-27T00:04:11.674Z,13.48
2019-04-27T00:06:43.070Z,12.23
2019-04-27T00:09:43.172Z,16.12
2019-04-27T00:12:09.691Z,14.03
2019-04-27T00:14:37.772Z,16.60
2019-04-27T00:17:48.533Z,14.25
2019-04-27T00:20:29.606Z,8.60
2019-04-27T00:23:03.283Z,9.43
2019-04-27T00:25:32.813Z,5.00
2019-04-27T00:28:00.786Z,5.35
2019-04-27T00:30:28.743Z,6.03
2019-04-27T00:32:56.730Z,5.90
2019-04-27T00:35:34.174Z,4.72
2019-04-27T00:38:16.578Z,4.65
2019-04-27T00:40:49.619Z,4.20
2019-04-27T00:43:17.623Z,4.30
2019-04-27T00:45:45.726Z,5.72
2019-04-27T00:48:14.978Z,8.78
2019-04-27T00:50:43.880Z,8.30
2019-04-27T00:53:13.365Z,9.63
2019-04-27T00:56:00.003Z,11.48
2019-04-27T00:58:36.375Z,11.75
2019-04-27T01:01:12.690Z,11.70
2019-04-27T01:03:44.437Z,13.35
2019-04-27T01:06:13.063Z,16.07
2019-04-27T01:08:42.754Z,13.40
2019-04-27T01:11:12.045Z,12.40
2019-04-27T01:13:46.266Z,15.25
2019-04-27T01:16:17.434Z,12.78
2019-04-27T01:18:44.076Z,13.65
2019-04-27T01:21:13.074Z,14.18
2019-04-27T01:23:41.103Z,14.33
2019-04-27T01:26:28.651Z,17.05
2019-04-27T01:29:06.606Z,14.90
2019-04-27T01:31:34.608Z,12.33
2019-04-27T01:34:02.533Z,11.48
2019-04-27T01:36:30.445Z,15.48
2019-04-27T01:38:59.500Z,11.10
2019-04-27T01:41:29.074Z,11.53
2019-04-27T01:43:57.087Z,10.30
2019-04-27T01:46:25.462Z,11.85
2019-04-27T01:48:54.539Z,11.93
2019-04-27T01:51:22.471Z,11.90
2019-04-27T01:53:50.366Z,10.72
2019-04-27T01:56:19.474Z,13.72
2019-04-27T01:58:49.398Z,12.03
2019-04-27T02:01:38.993Z,13.70
2019-04-27T02:04:21.202Z,12.90
2019-04-27T02:06:50.694Z,14.10
2019-04-27T02:09:20.297Z,14.03
2019-04-27T02:11:48.976Z,13.60
2019-04-27T02:14:17.100Z,14.07
2019-04-27T02:16:44.959Z,13.65
2019-04-27T02:19:12.841Z,15.13
2019-04-27T02:21:40.713Z,13.72
2019-04-27T02:24:09.748Z,14.63
2019-04-27T02:26:39.881Z,16.70
2019-04-27T02:29:48.786Z,14.25
2019-04-27T02:32:40.014Z,14.80
2019-04-27T02:35:13.351Z,13.70
2019-04-27T02:37:41.199Z,15.10
2019-04-27T02:40:55.796Z,14.28
2019-04-27T02:43:30.504Z,12.68
2019-04-27T02:46:00.465Z,16.00
2019-04-27T02:48:32.578Z,15.05
2019-04-27T02:51:04.186Z,13.22
2019-04-27T02:53:50.274Z,15.40
2019-04-27T02:56:21.181Z,14.40
2019-04-27T02:58:49.690Z,15.53
2019-04-27T03:01:20.065Z,16.95
2019-04-27T03:03:50.003Z,16.77
2019-04-27T03:06:19.884Z,16.07
2019-04-27T03:08:52.841Z,14.95
2019-04-27T03:11:20.518Z,14.40
2019-04-27T03:14:20.483Z,18.17
2019-04-27T03:16:54.695Z,16.20
2019-04-27T03:19:44.977Z,17.98
2019-04-27T03:22:24.992Z,15.50
2019-04-27T03:25:32.037Z,14.68
2019-04-27T03:28:05.643Z,16.00
2019-04-27T03:30:36.093Z,14.28
2019-04-27T03:33:06.346Z,13.43
2019-04-27T03:35:36.754Z,15.05
2019-04-27T03:38:04.176Z,14.93
2019-04-27T03:40:32.424Z,13.30
2019-04-27T03:43:06.320Z,13.50
2019-04-27T03:45:34.182Z,16.02
2019-04-27T03:48:02.611Z,15.98
2019-04-27T03:50:42.958Z,13.28
2019-04-27T03:53:42.526Z,13.10
2019-04-27T03:56:35.993Z,14.23
2019-04-27T03:59:23.483Z,13.53
2019-04-27T04:01:54.256Z,14.73
2019-04-27T04:04:25.235Z,14.30
2019-04-27T04:06:53.206Z,16.10
2019-04-27T04:09:39.975Z,15.28
2019-04-27T04:12:12.373Z,15.93
2019-04-27T04:14:43.280Z,17.80
2019-04-27T04:17:14.062Z,20.17
2019-04-27T04:19:54.376Z,16.50
2019-04-27T04:22:13.936Z,16.70
2019-04-27T04:24:41.808Z,16.77
2019-04-27T04:27:10.042Z,17.42
2019-04-27T04:29:39.442Z,17.57
2019-04-27T04:32:08.153Z,17.25
2019-04-27T04:34:39.775Z,14.65
2019-04-27T04:37:09.283Z,14.93
2019-04-27T04:39:40.044Z,14.80
2019-04-27T04:42:19.568Z,15.00
2019-04-27T04:45:03.483Z,14.18
2019-04-27T04:47:40.745Z,14.68
2019-04-27T04:50:14.739Z,14.68
2019-04-27T04:52:42.467Z,16.50
2019-04-27T04:55:10.225Z,14.10
2019-04-27T04:57:39.980Z,15.43
2019-04-27T05:00:09.842Z,15.03
2019-04-27T05:02:39.621Z,14.50
2019-04-27T05:05:09.408Z,15.65
2019-04-27T05:07:38.756Z,14.98
2019-04-27T05:10:08.846Z,14.70
2019-04-27T05:12:38.575Z,14.43
2019-04-27T05:15:06.751Z,14.53
2019-04-27T05:17:34.902Z,14.65
2019-04-27T05:20:24.686Z,13.25
2019-04-27T05:22:50.867Z,13.90
2019-04-27T05:25:18.740Z,14.65
2019-04-27T05:27:49.264Z,15.08
2019-04-27T05:30:19.569Z,13.08
2019-04-27T05:32:49.454Z,13.85
2019-04-27T05:35:19.316Z,13.20
2019-04-27T05:37:49.210Z,14.03
2019-04-27T05:40:18.746Z,12.90
2019-04-27T05:42:50.542Z,13.25
2019-04-27T05:46:09.942Z,12.90
2019-04-27T05:48:38.988Z,12.53
2019-04-27T05:51:07.098Z,11.88
2019-04-27T05:53:35.125Z,12.18
2019-04-27T05:56:03.020Z,11.35
2019-04-27T05:58:30.930Z,12.93
2019-04-27T06:00:59.508Z,12.55
2019-04-27T06:03:29.673Z,11.15
2019-04-27T06:06:01.366Z,9.58
2019-04-27T06:08:29.135Z,14.07
2019-04-27T06:10:57.063Z,10.82
2019-04-27T06:13:25.043Z,10.98
2019-04-27T06:15:54.973Z,10.32
2019-04-27T06:18:24.023Z,9.73
2019-04-27T06:20:55.735Z,8.73
2019-04-27T06:23:21.831Z,8.25
2019-04-27T06:25:49.839Z,8.55
2019-04-27T06:28:19.066Z,8.40
2019-04-27T06:30:47.096Z,7.50
2019-04-27T06:33:27.240Z,7.72
2019-04-27T06:35:44.823Z,7.05
2019-04-27T06:38:12.778Z,7.45
2019-04-27T06:40:40.795Z,6.40
2019-04-27T06:43:08.793Z,5.80
2019-04-27T06:45:38.772Z,5.67
2019-04-27T06:48:06.873Z,5.05
2019-04-27T06:50:36.029Z,6.28
2019-04-27T06:53:03.943Z,5.47
2019-04-27T06:55:32.001Z,5.03
2019-04-27T06:57:59.956Z,5.35
2019-04-27T07:00:28.924Z,5.92
2019-04-27T07:03:03.087Z,4.80
2019-04-27T07:05:31.048Z,7.53
2019-04-27T07:07:59.213Z,4.12
2019-04-27T07:10:28.642Z,3.67
2019-04-27T07:12:56.810Z,4.00
2019-04-27T07:15:24.767Z,3.87
2019-04-27T07:17:52.679Z,4.80
2019-04-27T07:20:20.721Z,4.00
2019-04-27T07:22:49.682Z,3.80
2019-04-27T07:25:18.910Z,6.67
2019-04-27T07:27:46.976Z,4.40
2019-04-27T07:30:15.038Z,4.08
2019-04-27T07:32:42.940Z,4.27
2019-04-27T07:35:10.964Z,4.27
2019-04-27T07:37:39.360Z,3.73
2019-04-27T07:40:09.069Z,3.80
2019-04-27T07:42:41.358Z,3.40
2019-04-27T07:45:19.536Z,3.77
2019-04-27T07:47:49.326Z,5.57
2019-04-27T07:50:17.367Z,4.37
2019-04-27T07:52:45.265Z,6.30
2019-04-27T07:55:13.178Z,5.53
2019-04-27T07:57:41.166Z,5.30
2019-04-27T08:00:10.486Z,5.53
2019-04-27T08:02:39.106Z,5.90
2019-04-27T08:05:07.185Z,5.47
2019-04-27T08:07:35.138Z,5.70
2019-04-27T08:10:04.294Z,4.20
2019-04-27T08:12:32.186Z,4.47
2019-04-27T08:15:00.243Z,5.80
2019-04-27T08:17:28.756Z,5.07
2019-04-27T08:19:59.571Z,5.50
2019-04-27T08:22:29.101Z,7.90
2019-04-27T08:24:57.152Z,6.37
2019-04-27T08:27:34.871Z,6.57
2019-04-27T08:30:41.511Z,4.53
2019-04-27T08:33:09.863Z,5.30
2019-04-27T08:35:40.673Z,4.65
2019-04-27T08:38:09.117Z,6.60
2019-04-27T08:40:39.349Z,4.43
2019-04-27T08:43:10.098Z,4.30
2019-04-27T08:45:39.204Z,5.67
2019-04-27T08:48:09.136Z,4.55
2019-04-27T08:50:39.788Z,4.23
2019-04-27T08:53:07.149Z,5.40
2019-04-27T08:55:35.103Z,4.00
2019-04-27T08:58:03.031Z,4.60
2019-04-27T09:00:30.972Z,4.70
2019-04-27T09:02:59.563Z,4.87
2019-04-27T09:05:28.936Z,4.45
2019-04-27T09:08:23.640Z,5.60
2019-04-27T09:10:59.000Z,4.92
2019-04-27T09:13:33.817Z,4.37
2019-04-27T09:16:11.216Z,4.22
2019-04-27T09:18:40.961Z,4.55
2019-04-27T09:21:10.621Z,4.60
2019-04-27T09:23:39.027Z,6.20
2019-04-27T09:26:06.984Z,6.45
2019-04-27T09:28:35.071Z,4.47
2019-04-27T09:31:03.225Z,4.30
2019-04-27T09:33:31.236Z,4.85
2019-04-27T09:35:59.174Z,5.00
2019-04-27T09:38:29.686Z,4.20
2019-04-27T09:40:58.148Z,4.27
2019-04-27T09:43:27.346Z,6.30
2019-04-27T09:45:55.893Z,3.40
2019-04-27T09:48:25.973Z,4.37
2019-04-27T09:50:55.905Z,4.90
2019-04-27T09:53:24.196Z,6.53
2019-04-27T09:55:53.669Z,2.95
2019-04-27T09:58:21.674Z,3.75
2019-04-27T10:00:49.771Z,4.20
2019-04-27T10:03:17.801Z,4.47
2019-04-27T10:05:46.308Z,3.63
2019-04-27T10:08:14.259Z,3.00
2019-04-27T10:10:42.517Z,3.80
2019-04-27T10:13:10.671Z,4.60
2019-04-27T10:15:40.178Z,3.40
2019-04-27T10:18:29.807Z,4.17
2019-04-27T10:21:01.924Z,3.77
2019-04-27T10:23:27.679Z,5.60
2019-04-27T10:25:55.809Z,4.33
2019-04-27T10:28:23.816Z,3.80
2019-04-27T10:30:51.804Z,3.70
2019-04-27T10:33:20.518Z,3.40
2019-04-27T10:35:48.864Z,4.70
2019-04-27T10:38:17.385Z,5.53
2019-04-27T10:40:47.451Z,6.17
2019-04-27T10:43:18.263Z,5.23
2019-04-27T10:45:46.554Z,6.53
2019-04-27T10:48:17.752Z,3.70
2019-04-27T10:50:46.675Z,4.13
2019-04-27T10:53:16.488Z,3.07
2019-04-27T10:55:46.393Z,4.63
2019-04-27T10:58:14.562Z,6.43
2019-04-27T11:00:48.384Z,4.45
2019-04-27T11:03:19.487Z,3.58
2019-04-27T11:06:09.570Z,5.30
2019-04-27T11:08:37.528Z,6.63
2019-04-27T11:11:05.633Z,7.50
2019-04-27T11:13:36.211Z,4.67
2019-04-27T11:16:04.784Z,4.93
2019-04-27T11:18:33.129Z,5.50
2019-04-27T11:21:01.274Z,5.00
2019-04-27T11:23:29.387Z,4.40
2019-04-27T11:25:57.389Z,7.05
2019-04-27T11:28:25.956Z,4.15
2019-04-27T11:30:54.247Z,6.47
2019-04-27T11:33:22.461Z,3.93
2019-04-27T11:36:08.804Z,5.53
2019-04-27T11:38:36.773Z,5.70
2019-04-27T11:41:04.982Z,6.07
2019-04-27T11:43:33.054Z,3.67
2019-04-27T11:46:01.246Z,5.33
2019-04-27T11:48:29.237Z,5.72
2019-04-27T11:50:57.358Z,7.70
2019-04-27T11:53:26.226Z,4.65
2019-04-27T11:55:54.469Z,4.60
2019-04-27T11:58:22.713Z,5.13
2019-04-27T12:00:50.685Z,5.60
2019-04-27T12:03:18.711Z,6.40
2019-04-27T12:05:46.747Z,7.10
2019-04-27T12:08:16.201Z,6.33
2019-04-27T12:10:46.401Z,4.53
2019-04-27T12:13:15.943Z,5.57
2019-04-27T12:15:44.032Z,7.20
2019-04-27T12:18:12.105Z,5.37
2019-04-27T12:20:40.056Z,3.30
2019-04-27T12:23:08.036Z,3.47
2019-04-27T12:25:37.360Z,3.20
2019-04-27T12:28:26.982Z,7.70
2019-04-27T12:31:02.160Z,2.87
2019-04-27T12:33:30.243Z,5.60
2019-04-27T12:35:58.222Z,4.80
2019-04-27T12:38:28.301Z,3.73
2019-04-27T12:40:56.757Z,2.70
2019-04-27T12:43:24.831Z,4.10
2019-04-27T12:45:52.902Z,4.33
2019-04-27T12:48:20.895Z,5.50
2019-04-27T12:50:49.059Z,2.90
2019-04-27T12:53:49.935Z,4.53
2019-04-27T12:56:16.660Z,5.50
2019-04-27T12:59:10.158Z,2.10
2019-04-27T13:01:38.562Z,2.90
2019-04-27T13:04:06.919Z,2.70
2019-04-27T13:06:36.061Z,3.53
2019-04-27T13:09:07.115Z,3.90
2019-04-27T13:11:36.641Z,2.10
2019-04-27T13:14:06.205Z,3.17
2019-04-27T13:16:34.257Z,3.27
2019-04-27T13:19:02.356Z,2.20
2019-04-27T13:21:30.370Z,3.20
2019-04-27T13:24:04.136Z,2.70
2019-04-27T13:26:28.395Z,2.50
2019-04-27T13:28:58.197Z,2.47
2019-04-27T13:31:26.577Z,3.23
2019-04-27T13:33:55.919Z,3.70
2019-04-27T13:36:26.582Z,2.30
2019-04-27T13:38:56.135Z,1.97
2019-04-27T13:41:30.456Z,2.02
2019-04-27T13:43:55.742Z,6.78
2019-04-27T13:46:34.653Z,2.33
2019-04-27T13:49:32.841Z,1.32
2019-04-27T13:52:06.202Z,2.12
2019-04-27T13:54:34.227Z,2.42
2019-04-27T13:57:02.205Z,2.55
2019-04-27T13:59:31.795Z,2.20
2019-04-27T14:01:59.853Z,2.65
2019-04-27T14:04:27.777Z,2.22
2019-04-27T14:06:55.901Z,2.60
2019-04-27T14:09:23.883Z,2.65
2019-04-27T14:11:55.687Z,3.00
2019-04-27T14:14:23.647Z,3.08
2019-04-27T14:16:51.649Z,1.70
2019-04-27T14:19:19.753Z,4.87
2019-04-27T14:21:49.019Z,2.27
2019-04-27T14:24:27.450Z,3.58
2019-04-27T14:26:48.572Z,3.90
2019-04-27T14:29:16.743Z,4.30
2019-04-27T14:31:44.722Z,4.25
2019-04-27T14:34:12.762Z,2.62
2019-04-27T14:36:40.950Z,4.35
2019-04-27T14:39:11.784Z,2.40
2019-04-27T14:41:41.616Z,2.77
2019-04-27T14:44:10.718Z,5.05
2019-04-27T14:46:38.879Z,6.03
2019-04-27T14:49:08.111Z,3.17
2019-04-27T14:51:39.866Z,2.67
2019-04-27T14:54:06.684Z,5.15
2019-04-27T14:56:34.639Z,3.70
2019-04-27T14:59:02.725Z,5.35
2019-04-27T15:01:30.686Z,3.33
2019-04-27T15:03:58.743Z,4.90
2019-04-27T15:06:26.665Z,8.73
2019-04-27T15:08:55.771Z,4.20
2019-04-27T15:11:24.136Z,3.60
2019-04-27T15:13:54.938Z,6.37
2019-04-27T15:16:23.072Z,4.90
2019-04-27T15:18:55.822Z,4.47
2019-04-27T15:21:25.528Z,3.77
2019-04-27T15:23:53.710Z,3.20
2019-04-27T15:26:22.944Z,2.40
2019-04-27T15:28:53.159Z,2.77
2019-04-27T15:31:40.987Z,4.50
2019-04-27T15:34:29.127Z,4.37
2019-04-27T15:37:34.211Z,3.10
2019-04-27T15:40:30.941Z,1.80
2019-04-27T15:43:23.013Z,2.77
2019-04-27T15:45:53.499Z,2.80
2019-04-27T15:48:25.169Z,4.60
2019-04-27T15:50:51.974Z,3.30
2019-04-27T15:53:19.919Z,3.20
2019-04-27T15:55:49.660Z,4.27
2019-04-27T15:58:25.119Z,4.67
2019-04-27T16:00:56.212Z,2.77
2019-04-27T16:03:22.661Z,2.47
2019-04-27T16:05:50.904Z,4.13
2019-04-27T16:08:19.067Z,3.60
2019-04-27T16:10:48.621Z,3.20
2019-04-27T16:13:18.209Z,3.50
2019-04-27T16:15:48.107Z,5.50
2019-04-27T16:18:16.421Z,6.17
2019-04-27T16:20:44.502Z,2.87
2019-04-27T16:23:12.996Z,4.00
2019-04-27T16:25:48.659Z,5.40
2019-04-27T16:28:13.349Z,2.98
2019-04-27T16:30:45.644Z,3.20
2019-04-27T16:33:15.362Z,4.08
2019-04-27T16:35:42.043Z,5.40
2019-04-27T16:38:19.544Z,3.42
2019-04-27T16:40:47.634Z,6.45
2019-04-27T16:43:15.797Z,4.55
2019-04-27T16:45:43.960Z,7.03
2019-04-27T16:48:13.063Z,7.87
2019-04-27T16:50:41.270Z,5.58
2019-04-27T16:53:12.419Z,6.33
2019-04-27T16:55:39.349Z,7.10
2019-04-27T16:58:09.652Z,5.60
2019-04-27T17:00:38.765Z,1.65
2019-04-27T17:03:09.234Z,4.30
2019-04-27T17:05:37.991Z,1.62
2019-04-27T17:08:06.327Z,2.40
2019-04-27T17:10:38.503Z,2.40
2019-04-27T17:13:13.350Z,2.30
2019-04-27T17:15:58.959Z,2.95
2019-04-27T17:18:49.041Z,3.47
2019-04-27T17:21:22.549Z,3.87
2019-04-27T17:23:48.151Z,2.92
2019-04-27T17:26:21.715Z,2.08
2019-04-27T17:28:55.158Z,6.53
2019-04-27T17:31:25.499Z,3.17
2019-04-27T17:34:00.564Z,2.20
2019-04-27T17:36:29.262Z,3.15
2019-04-27T17:38:58.345Z,2.10
2019-04-27T17:41:28.231Z,3.42
2019-04-27T17:43:56.563Z,6.10
2019-04-27T17:46:24.516Z,3.87
2019-04-27T17:48:52.605Z,3.17
2019-04-27T17:51:20.710Z,5.25
2019-04-27T17:53:50.022Z,5.40
2019-04-27T17:56:18.597Z,4.50
2019-04-27T17:58:48.615Z,3.52
2019-04-27T18:01:20.240Z,3.42
2019-04-27T18:03:46.529Z,3.87
2019-04-27T18:06:14.718Z,4.05
2019-04-27T18:08:42.905Z,4.30
2019-04-27T18:11:10.993Z,5.20
2019-04-27T18:13:41.974Z,4.90
2019-04-27T18:16:09.344Z,5.33
2019-04-27T18:18:45.585Z,5.22
2019-04-27T18:21:14.550Z,4.33
2019-04-27T18:23:45.393Z,2.80
2019-04-27T18:26:46.069Z,6.10
2019-04-27T18:29:04.357Z,5.12
2019-04-27T18:31:32.541Z,4.58
2019-04-27T18:34:00.817Z,4.78
2019-04-27T18:36:29.520Z,5.25
2019-04-27T18:38:58.745Z,5.05
2019-04-27T18:41:28.682Z,3.40
2019-04-27T18:44:00.225Z,6.87
2019-04-27T18:46:28.292Z,3.87
2019-04-27T18:49:18.083Z,4.08
2019-04-27T18:52:06.570Z,3.55
2019-04-27T18:54:38.162Z,4.12
2019-04-27T18:57:05.153Z,3.75
2019-04-27T18:59:33.169Z,3.62
2019-04-27T19:02:01.402Z,2.50
2019-04-27T19:04:29.564Z,4.40
2019-04-27T19:06:58.520Z,4.78
2019-04-27T19:09:27.671Z,6.10
2019-04-27T19:11:56.861Z,3.42
2019-04-27T19:14:24.975Z,4.28
2019-04-27T19:16:52.969Z,4.60
2019-04-27T19:19:21.006Z,3.90
2019-04-27T19:21:49.065Z,3.95
2019-04-27T19:24:19.048Z,3.47
2019-04-27T19:26:53.481Z,2.50
2019-04-27T19:29:24.909Z,3.67
2019-04-27T19:31:55.250Z,5.17
2019-04-27T19:34:23.365Z,4.08
2019-04-27T19:36:51.389Z,4.92
2019-04-27T19:39:19.439Z,7.78
2019-04-27T19:42:00.038Z,3.87
2019-04-27T19:44:18.765Z,3.95
2019-04-27T19:46:49.069Z,3.70
2019-04-27T19:49:19.288Z,5.87
2019-04-27T19:51:47.431Z,4.45
2019-04-27T19:54:15.789Z,4.60
2019-04-27T19:56:43.840Z,5.37
2019-04-27T19:59:28.102Z,8.25
2019-04-27T20:01:58.727Z,6.87
2019-04-27T20:04:31.735Z,7.28
2019-04-27T20:06:59.827Z,5.97
2019-04-27T20:09:52.940Z,7.47
2019-04-27T20:12:21.385Z,6.90
2019-04-27T20:14:55.485Z,7.12
2019-04-27T20:17:25.653Z,7.20
2019-04-27T20:19:53.820Z,8.75
2019-04-27T20:22:24.393Z,5.85
2019-04-27T20:24:54.897Z,5.42
2019-04-27T20:27:22.960Z,5.65
2019-04-27T20:29:51.141Z,4.40
2019-04-27T20:32:19.270Z,6.15
2019-04-27T20:34:48.231Z,3.85
2019-04-27T20:37:16.346Z,6.35
2019-04-27T20:39:44.328Z,10.23
2019-04-27T20:42:12.714Z,8.20
2019-04-27T20:44:41.342Z,5.00
2019-04-27T20:47:10.259Z,3.02
2019-04-27T20:49:38.273Z,4.60
2019-04-27T20:52:12.389Z,5.40
2019-04-27T20:54:41.575Z,4.35
2019-04-27T20:57:11.529Z,6.75
2019-04-27T20:59:39.666Z,9.88
2019-04-27T21:02:26.187Z,9.63
2019-04-27T21:05:22.127Z,7.92
2019-04-27T21:07:53.221Z,6.00
2019-04-27T21:10:21.241Z,4.50
2019-04-27T21:12:49.220Z,11.22
2019-04-27T21:15:17.471Z,7.08
2019-04-27T21:17:46.546Z,7.62
2019-04-27T21:20:14.700Z,6.33
2019-04-27T21:22:42.706Z,3.47
2019-04-27T21:25:11.850Z,4.28
2019-04-27T21:27:41.065Z,5.35
2019-04-27T21:30:11.509Z,8.28
2019-04-27T21:32:39.631Z,6.40
2019-04-27T21:35:10.807Z,4.65
2019-04-27T21:37:40.772Z,6.62
2019-04-27T21:40:16.954Z,6.78
2019-04-27T21:42:45.259Z,7.33
2019-04-27T21:45:13.896Z,13.93
2019-04-27T21:47:43.306Z,10.95
2019-04-27T21:50:12.197Z,8.03
2019-04-27T21:52:45.995Z,6.67
2019-04-27T21:55:15.573Z,4.97
2019-04-27T21:57:43.644Z,4.70
2019-04-27T22:00:44.556Z,8.05
2019-04-27T22:03:15.364Z,8.80
2019-04-27T22:05:43.447Z,9.38
2019-04-27T22:08:11.913Z,8.38
2019-04-27T22:10:40.011Z,5.62
2019-04-27T22:13:07.934Z,9.05
2019-04-27T22:15:42.647Z,4.47
2019-04-27T22:18:11.181Z,6.05
2019-04-27T22:20:42.440Z,4.08
2019-04-27T22:23:19.057Z,3.70
2019-04-27T22:25:48.040Z,5.30
2019-04-27T22:28:17.039Z,6.78
2019-04-27T22:30:45.041Z,7.40
2019-04-27T22:33:13.250Z,5.65
2019-04-27T22:35:41.544Z,5.37
2019-04-27T22:38:09.561Z,9.08
2019-04-27T22:40:54.558Z,4.72
2019-04-27T22:43:41.368Z,8.75
2019-04-27T22:46:12.432Z,8.30
2019-04-27T22:48:41.660Z,4.35
2019-04-27T22:51:11.592Z,7.67
2019-04-27T22:53:41.080Z,3.50
2019-04-27T22:56:13.756Z,6.22
2019-04-27T22:58:57.015Z,8.58
2019-04-27T23:01:37.157Z,4.22
2019-04-27T23:04:06.911Z,7.92
2019-04-27T23:06:35.041Z,6.72
2019-04-27T23:09:04.404Z,7.15
2019-04-27T23:11:34.363Z,6.67
2019-04-27T23:14:02.521Z,5.50
2019-04-27T23:16:32.438Z,6.83
2019-04-27T23:19:01.813Z,12.05
2019-04-27T23:21:31.273Z,9.65
2019-04-27T23:24:02.135Z,6.70
2019-04-27T23:26:31.216Z,9.58
2019-04-27T23:29:11.022Z,4.45
2019-04-27T23:31:38.546Z,8.68
2019-04-27T23:34:25.994Z,5.20
2019-04-27T23:36:53.935Z,7.33
2019-04-27T23:39:22.951Z,6.85
2019-04-27T23:41:50.876Z,5.90
2019-04-27T23:44:18.813Z,6.20
2019-04-27T23:46:46.826Z,4.95
2019-04-27T23:49:14.797Z,7.30
2019-04-27T23:51:57.044Z,7.87
2019-04-27T23:54:25.073Z,5.12
2019-04-27T23:56:53.120Z,6.78
2019-04-27T23:59:25.130Z,9.35
